sensor_id;sensor_type;location;lat;lon;timestamp;pressure;altitude;pressure_sealevel;temperature;humidity
60589;BME280;46421;48.610;9.334;2022-10-16T00:01:30;97917.28;;;14.32;100.00
60589;BME280;46421;48.610;9.334;2022-10-16T00:03:57;97912.13;;;14.24;100.00
60589;BME280;46421;48.610;9.334;2022-10-16T00:06:24;97909.00;;;14.07;100.00
60589;BME280;46421;48.610;9.334;2022-10-16T00:08:50;97900.56;;;14.03;100.00
60589;BME280;46421;48.610;9.334;2022-10-16T00:11:28;97897.69;;;13.98;100.00
60589;BME280;46421;48.610;9.334;2022-10-16T00:13:59;97910.22;;;13.91;100.00
60589;BME280;46421;48.610;9.334;2022-10-16T00:16:26;97901.16;;;13.92;100.00
60589;BME280;46421;48.610;9.334;2022-10-16T00:18:52;97901.78;;;13.94;100.00
60589;BME280;46421;48.610;9.334;2022-10-16T00:21:20;97903.84;;;13.99;100.00
60589;BME280;46421;48.610;9.334;2022-10-16T00:23:49;97903.63;;;14.00;100.00
60589;BME280;46421;48.610;9.334;2022-10-16T00:26:17;97911.94;;;14.26;100.00
60589;BME280;46421;48.610;9.334;2022-10-16T00:28:45;97905.72;;;14.12;100.00
60589;BME280;46421;48.610;9.334;2022-10-16T00:31:12;97921.78;;;14.25;100.00
60589;BME280;46421;48.610;9.334;2022-10-16T00:33:38;97920.13;;;14.11;100.00
60589;BME280;46421;48.610;9.334;2022-10-16T00:36:05;97925.81;;;13.94;100.00
60589;BME280;46421;48.610;9.334;2022-10-16T00:38:31;97916.94;;;13.80;100.00
60589;BME280;46421;48.610;9.334;2022-10-16T00:40:56;97919.97;;;13.70;100.00
60589;BME280;46421;48.610;9.334;2022-10-16T00:46:00;97910.88;;;13.51;100.00
60589;BME280;46421;48.610;9.334;2022-10-16T00:48:26;97926.25;;;13.49;100.00
60589;BME280;46421;48.610;9.334;2022-10-16T00:50:52;97932.66;;;13.55;100.00
60589;BME280;46421;48.610;9.334;2022-10-16T00:53:18;97928.34;;;13.54;100.00
60589;BME280;46421;48.610;9.334;2022-10-16T00:55:44;97925.28;;;13.57;100.00
60589;BME280;46421;48.610;9.334;2022-10-16T00:58:11;97917.69;;;13.60;100.00
60589;BME280;46421;48.610;9.334;2022-10-16T01:00:37;97921.97;;;13.55;100.00
60589;BME280;46421;48.610;9.334;2022-10-16T01:03:23;97918.22;;;13.42;100.00
60589;BME280;46421;48.610;9.334;2022-10-16T01:05:55;97919.00;;;13.36;100.00
60589;BME280;46421;48.610;9.334;2022-10-16T01:08:38;97917.09;;;13.30;100.00
60589;BME280;46421;48.610;9.334;2022-10-16T01:11:17;97924.44;;;13.50;100.00
60589;BME280;46421;48.610;9.334;2022-10-16T01:13:46;97924.59;;;13.41;100.00
60589;BME280;46421;48.610;9.334;2022-10-16T01:16:23;97934.25;;;13.42;100.00
60589;BME280;46421;48.610;9.334;2022-10-16T01:19:09;97923.50;;;13.36;100.00
60589;BME280;46421;48.610;9.334;2022-10-16T01:21:41;97931.47;;;13.29;100.00
60589;BME280;46421;48.610;9.334;2022-10-16T01:24:15;97932.94;;;13.32;100.00
60589;BME280;46421;48.610;9.334;2022-10-16T01:29:42;97930.00;;;13.26;100.00
60589;BME280;46421;48.610;9.334;2022-10-16T01:32:24;97937.44;;;13.31;100.00
60589;BME280;46421;48.610;9.334;2022-10-16T01:35:05;97935.81;;;13.37;100.00
60589;BME280;46421;48.610;9.334;2022-10-16T01:37:41;97932.59;;;13.41;100.00
60589;BME280;46421;48.610;9.334;2022-10-16T01:40:13;97921.91;;;13.41;100.00
60589;BME280;46421;48.610;9.334;2022-10-16T01:42:51;97919.47;;;13.40;100.00
60589;BME280;46421;48.610;9.334;2022-10-16T01:45:19;97927.47;;;13.47;100.00
60589;BME280;46421;48.610;9.334;2022-10-16T01:47:46;97928.38;;;13.60;100.00
60589;BME280;46421;48.610;9.334;2022-10-16T01:50:15;97917.91;;;13.59;100.00
60589;BME280;46421;48.610;9.334;2022-10-16T01:52:44;97923.25;;;13.59;100.00
60589;BME280;46421;48.610;9.334;2022-10-16T01:55:16;97926.66;;;13.46;100.00
60589;BME280;46421;48.610;9.334;2022-10-16T01:57:46;97923.94;;;13.39;100.00
60589;BME280;46421;48.610;9.334;2022-10-16T02:00:16;97917.00;;;13.45;100.00
60589;BME280;46421;48.610;9.334;2022-10-16T02:02:46;97921.38;;;13.53;100.00
60589;BME280;46421;48.610;9.334;2022-10-16T02:05:53;97919.69;;;13.45;100.00
60589;BME280;46421;48.610;9.334;2022-10-16T02:08:19;97920.53;;;13.52;100.00
60589;BME280;46421;48.610;9.334;2022-10-16T02:10:46;97925.44;;;13.49;100.00
60589;BME280;46421;48.610;9.334;2022-10-16T02:15:40;97922.56;;;13.43;100.00
60589;BME280;46421;48.610;9.334;2022-10-16T02:18:06;97918.63;;;13.39;100.00
60589;BME280;46421;48.610;9.334;2022-10-16T02:20:42;97916.63;;;13.55;100.00
60589;BME280;46421;48.610;9.334;2022-10-16T02:23:16;97922.19;;;13.53;100.00
60589;BME280;46421;48.610;9.334;2022-10-16T02:25:46;97921.59;;;13.58;100.00
60589;BME280;46421;48.610;9.334;2022-10-16T02:28:24;97916.34;;;13.85;100.00
60589;BME280;46421;48.610;9.334;2022-10-16T02:31:02;97922.16;;;14.08;100.00
60589;BME280;46421;48.610;9.334;2022-10-16T02:33:30;97927.69;;;13.94;100.00
60589;BME280;46421;48.610;9.334;2022-10-16T02:35:57;97938.41;;;14.07;100.00
60589;BME280;46421;48.610;9.334;2022-10-16T02:38:23;97929.50;;;13.93;100.00
60589;BME280;46421;48.610;9.334;2022-10-16T02:40:49;97931.34;;;13.79;100.00
60589;BME280;46421;48.610;9.334;2022-10-16T02:43:16;97918.75;;;13.66;100.00
60589;BME280;46421;48.610;9.334;2022-10-16T02:45:41;97917.81;;;13.46;100.00
60589;BME280;46421;48.610;9.334;2022-10-16T02:48:07;97917.09;;;13.30;100.00
60589;BME280;46421;48.610;9.334;2022-10-16T02:50:32;97918.81;;;13.09;100.00
60589;BME280;46421;48.610;9.334;2022-10-16T02:52:58;97920.91;;;13.14;100.00
60589;BME280;46421;48.610;9.334;2022-10-16T02:55:23;97921.78;;;13.21;100.00
60589;BME280;46421;48.610;9.334;2022-10-16T02:57:48;97918.13;;;13.29;100.00
60589;BME280;46421;48.610;9.334;2022-10-16T03:00:16;97921.53;;;13.44;100.00
60589;BME280;46421;48.610;9.334;2022-10-16T03:02:42;97919.56;;;13.60;100.00
60589;BME280;46421;48.610;9.334;2022-10-16T03:05:08;97924.91;;;13.60;100.00
60589;BME280;46421;48.610;9.334;2022-10-16T03:07:33;97919.94;;;13.57;100.00
60589;BME280;46421;48.610;9.334;2022-10-16T03:09:59;97922.13;;;13.47;100.00
60589;BME280;46421;48.610;9.334;2022-10-16T03:12:27;97917.22;;;13.43;100.00
60589;BME280;46421;48.610;9.334;2022-10-16T03:14:53;97927.19;;;13.35;100.00
60589;BME280;46421;48.610;9.334;2022-10-16T03:17:22;97922.69;;;13.35;100.00
60589;BME280;46421;48.610;9.334;2022-10-16T03:19:47;97920.81;;;13.29;100.00
60589;BME280;46421;48.610;9.334;2022-10-16T03:22:13;97924.66;;;13.26;100.00
60589;BME280;46421;48.610;9.334;2022-10-16T03:24:38;97917.50;;;13.27;100.00
60589;BME280;46421;48.610;9.334;2022-10-16T03:27:04;97924.06;;;13.59;100.00
60589;BME280;46421;48.610;9.334;2022-10-16T03:29:29;97928.97;;;13.56;100.00
60589;BME280;46421;48.610;9.334;2022-10-16T03:31:56;97919.00;;;13.36;100.00
60589;BME280;46421;48.610;9.334;2022-10-16T03:34:21;97905.81;;;13.28;100.00
60589;BME280;46421;48.610;9.334;2022-10-16T03:36:47;97901.06;;;13.23;100.00
60589;BME280;46421;48.610;9.334;2022-10-16T03:39:12;97930.00;;;13.26;100.00
60589;BME280;46421;48.610;9.334;2022-10-16T03:41:38;97924.66;;;13.20;100.00
60589;BME280;46421;48.610;9.334;2022-10-16T03:44:03;97927.53;;;13.25;100.00
60589;BME280;46421;48.610;9.334;2022-10-16T03:46:28;97921.72;;;13.15;100.00
60589;BME280;46421;48.610;9.334;2022-10-16T03:48:54;97927.03;;;13.08;100.00
60589;BME280;46421;48.610;9.334;2022-10-16T03:51:20;97928.91;;;13.14;100.00
60589;BME280;46421;48.610;9.334;2022-10-16T03:53:45;97935.75;;;13.23;100.00
60589;BME280;46421;48.610;9.334;2022-10-16T03:56:10;97939.78;;;13.41;100.00
60589;BME280;46421;48.610;9.334;2022-10-16T03:58:36;97937.25;;;13.33;100.00
60589;BME280;46421;48.610;9.334;2022-10-16T04:01:04;97939.50;;;13.36;100.00
60589;BME280;46421;48.610;9.334;2022-10-16T04:03:30;97941.53;;;13.27;100.00
60589;BME280;46421;48.610;9.334;2022-10-16T04:05:55;97946.41;;;13.52;100.00
60589;BME280;46421;48.610;9.334;2022-10-16T04:08:21;97946.59;;;13.50;100.00
60589;BME280;46421;48.610;9.334;2022-10-16T04:10:46;97947.06;;;13.60;100.00
60589;BME280;46421;48.610;9.334;2022-10-16T04:13:12;97944.50;;;13.39;100.00
60589;BME280;46421;48.610;9.334;2022-10-16T04:15:38;97941.69;;;13.19;100.00
60589;BME280;46421;48.610;9.334;2022-10-16T04:18:04;97947.97;;;13.11;100.00
60589;BME280;46421;48.610;9.334;2022-10-16T04:20:29;97950.94;;;13.23;100.00
60589;BME280;46421;48.610;9.334;2022-10-16T04:22:55;97953.44;;;13.24;100.00
60589;BME280;46421;48.610;9.334;2022-10-16T04:25:21;97947.66;;;13.21;100.00
60589;BME280;46421;48.610;9.334;2022-10-16T04:27:46;97952.63;;;13.31;100.00
60589;BME280;46421;48.610;9.334;2022-10-16T04:30:12;97958.72;;;13.18;100.00
60589;BME280;46421;48.610;9.334;2022-10-16T04:32:38;97955.84;;;13.19;100.00
60589;BME280;46421;48.610;9.334;2022-10-16T04:35:04;97952.78;;;13.22;100.00
60589;BME280;46421;48.610;9.334;2022-10-16T04:37:29;97949.75;;;13.32;100.00
60589;BME280;46421;48.610;9.334;2022-10-16T04:39:54;97945.25;;;13.33;100.00
60589;BME280;46421;48.610;9.334;2022-10-16T04:42:20;97949.09;;;13.23;100.00
60589;BME280;46421;48.610;9.334;2022-10-16T04:44:46;97948.66;;;13.20;100.00
60589;BME280;46421;48.610;9.334;2022-10-16T04:47:11;97941.97;;;13.31;100.00
60589;BME280;46421;48.610;9.334;2022-10-16T04:49:37;97947.66;;;13.56;100.00
60589;BME280;46421;48.610;9.334;2022-10-16T04:52:03;97951.94;;;13.50;100.00
60589;BME280;46421;48.610;9.334;2022-10-16T04:54:28;97954.66;;;13.57;100.00
60589;BME280;46421;48.610;9.334;2022-10-16T04:56:54;97954.06;;;13.62;100.00
60589;BME280;46421;48.610;9.334;2022-10-16T04:59:20;97954.78;;;13.42;100.00
60589;BME280;46421;48.610;9.334;2022-10-16T05:01:46;97958.84;;;13.38;100.00
60589;BME280;46421;48.610;9.334;2022-10-16T05:04:12;97963.53;;;13.36;100.00
60589;BME280;46421;48.610;9.334;2022-10-16T05:06:38;97960.44;;;13.32;100.00
60589;BME280;46421;48.610;9.334;2022-10-16T05:09:04;97965.75;;;13.25;100.00
60589;BME280;46421;48.610;9.334;2022-10-16T05:11:30;97968.03;;;13.00;100.00
60589;BME280;46421;48.610;9.334;2022-10-16T05:13:56;97973.19;;;13.02;100.00
60589;BME280;46421;48.610;9.334;2022-10-16T05:16:21;97971.56;;;13.07;100.00
60589;BME280;46421;48.610;9.334;2022-10-16T05:18:47;97979.13;;;13.04;100.00
60589;BME280;46421;48.610;9.334;2022-10-16T05:21:12;97973.03;;;13.10;100.00
60589;BME280;46421;48.610;9.334;2022-10-16T05:23:38;97969.28;;;13.33;100.00
60589;BME280;46421;48.610;9.334;2022-10-16T05:26:03;97974.34;;;13.21;100.00
60589;BME280;46421;48.610;9.334;2022-10-16T05:28:29;97976.72;;;13.09;100.00
60589;BME280;46421;48.610;9.334;2022-10-16T05:30:56;97978.25;;;12.96;100.00
60589;BME280;46421;48.610;9.334;2022-10-16T05:33:23;97981.69;;;12.90;100.00
60589;BME280;46421;48.610;9.334;2022-10-16T05:35:49;97984.88;;;13.01;100.00
60589;BME280;46421;48.610;9.334;2022-10-16T05:38:16;97986.56;;;13.08;100.00
60589;BME280;46421;48.610;9.334;2022-10-16T05:40:41;97990.66;;;13.33;100.00
60589;BME280;46421;48.610;9.334;2022-10-16T05:43:06;97976.59;;;13.17;100.00
60589;BME280;46421;48.610;9.334;2022-10-16T05:45:32;97986.47;;;12.95;100.00
60589;BME280;46421;48.610;9.334;2022-10-16T05:47:57;97991.72;;;12.88;100.00
60589;BME280;46421;48.610;9.334;2022-10-16T05:50:22;98002.75;;;12.78;100.00
60589;BME280;46421;48.610;9.334;2022-10-16T05:52:48;98001.41;;;12.89;100.00
60589;BME280;46421;48.610;9.334;2022-10-16T05:55:13;97997.41;;;12.78;100.00
60589;BME280;46421;48.610;9.334;2022-10-16T05:57:39;97999.56;;;12.90;100.00
60589;BME280;46421;48.610;9.334;2022-10-16T06:00:05;98007.44;;;12.98;100.00
60589;BME280;46421;48.610;9.334;2022-10-16T06:02:30;98003.25;;;12.89;100.00
60589;BME280;46421;48.610;9.334;2022-10-16T06:04:56;98008.03;;;13.00;100.00
60589;BME280;46421;48.610;9.334;2022-10-16T06:07:22;98007.28;;;13.06;100.00
60589;BME280;46421;48.610;9.334;2022-10-16T06:09:49;98001.94;;;13.06;100.00
60589;BME280;46421;48.610;9.334;2022-10-16T06:12:15;98009.28;;;13.26;100.00
60589;BME280;46421;48.610;9.334;2022-10-16T06:14:40;98016.19;;;13.42;100.00
60589;BME280;46421;48.610;9.334;2022-10-16T06:17:06;98024.31;;;13.55;100.00
60589;BME280;46421;48.610;9.334;2022-10-16T06:19:31;98017.41;;;13.74;100.00
60589;BME280;46421;48.610;9.334;2022-10-16T06:21:57;98025.22;;;13.76;100.00
60589;BME280;46421;48.610;9.334;2022-10-16T06:24:23;98018.28;;;13.88;100.00
60589;BME280;46421;48.610;9.334;2022-10-16T06:26:49;98023.72;;;14.08;100.00
60589;BME280;46421;48.610;9.334;2022-10-16T06:29:14;98028.31;;;14.21;100.00
60589;BME280;46421;48.610;9.334;2022-10-16T06:31:39;98030.38;;;16.14;98.91
60589;BME280;46421;48.610;9.334;2022-10-16T06:34:05;98023.00;;;16.80;92.01
60589;BME280;46421;48.610;9.334;2022-10-16T06:36:34;98029.53;;;16.20;95.37
60589;BME280;46421;48.610;9.334;2022-10-16T06:39:00;98040.00;;;15.43;100.00
60589;BME280;46421;48.610;9.334;2022-10-16T06:41:25;98039.00;;;15.17;100.00
60589;BME280;46421;48.610;9.334;2022-10-16T06:43:51;98041.88;;;15.09;100.00
60589;BME280;46421;48.610;9.334;2022-10-16T06:46:20;98036.72;;;14.94;100.00
60589;BME280;46421;48.610;9.334;2022-10-16T06:48:46;98046.00;;;15.11;100.00
60589;BME280;46421;48.610;9.334;2022-10-16T06:51:14;98052.38;;;15.24;100.00
60589;BME280;46421;48.610;9.334;2022-10-16T06:53:47;98057.75;;;15.51;100.00
60589;BME280;46421;48.610;9.334;2022-10-16T06:56:19;98064.31;;;15.48;100.00
60589;BME280;46421;48.610;9.334;2022-10-16T06:58:46;98058.34;;;15.59;100.00
60589;BME280;46421;48.610;9.334;2022-10-16T07:01:12;98058.97;;;15.41;100.00
60589;BME280;46421;48.610;9.334;2022-10-16T07:03:41;98056.47;;;15.60;100.00
60589;BME280;46421;48.610;9.334;2022-10-16T07:06:09;98068.31;;;16.24;100.00
60589;BME280;46421;48.610;9.334;2022-10-16T07:08:36;98066.97;;;15.75;100.00
60589;BME280;46421;48.610;9.334;2022-10-16T07:11:07;98074.84;;;15.43;100.00
60589;BME280;46421;48.610;9.334;2022-10-16T07:13:34;98075.88;;;15.15;100.00
60589;BME280;46421;48.610;9.334;2022-10-16T07:16:20;98079.13;;;14.97;100.00
60589;BME280;46421;48.610;9.334;2022-10-16T07:18:46;98073.78;;;14.77;100.00
60589;BME280;46421;48.610;9.334;2022-10-16T07:21:21;98085.72;;;14.88;100.00
60589;BME280;46421;48.610;9.334;2022-10-16T07:23:53;98084.50;;;14.90;100.00
60589;BME280;46421;48.610;9.334;2022-10-16T07:26:19;98089.06;;;15.03;100.00
60589;BME280;46421;48.610;9.334;2022-10-16T07:28:45;98097.06;;;14.96;100.00
60589;BME280;46421;48.610;9.334;2022-10-16T07:31:13;98100.16;;;15.07;100.00
60589;BME280;46421;48.610;9.334;2022-10-16T07:33:40;98102.47;;;15.23;100.00
60589;BME280;46421;48.610;9.334;2022-10-16T07:36:08;98107.63;;;15.31;100.00
60589;BME280;46421;48.610;9.334;2022-10-16T07:38:34;98118.13;;;15.33;100.00
60589;BME280;46421;48.610;9.334;2022-10-16T07:41:05;98126.13;;;15.40;100.00
60589;BME280;46421;48.610;9.334;2022-10-16T07:43:31;98124.91;;;15.22;100.00
60589;BME280;46421;48.610;9.334;2022-10-16T07:45:56;98130.25;;;15.29;100.00
60589;BME280;46421;48.610;9.334;2022-10-16T07:48:23;98133.13;;;15.41;100.00
60589;BME280;46421;48.610;9.334;2022-10-16T07:50:49;98148.81;;;15.57;100.00
60589;BME280;46421;48.610;9.334;2022-10-16T07:53:15;98144.69;;;15.61;100.00
60589;BME280;46421;48.610;9.334;2022-10-16T07:55:41;98136.63;;;15.48;100.00
60589;BME280;46421;48.610;9.334;2022-10-16T07:58:07;98141.19;;;15.41;100.00
60589;BME280;46421;48.610;9.334;2022-10-16T08:00:33;98139.94;;;15.50;100.00
60589;BME280;46421;48.610;9.334;2022-10-16T08:02:58;98144.69;;;15.55;100.00
60589;BME280;46421;48.610;9.334;2022-10-16T08:05:32;98157.28;;;15.68;100.00
60589;BME280;46421;48.610;9.334;2022-10-16T08:07:58;98149.25;;;15.88;100.00
60589;BME280;46421;48.610;9.334;2022-10-16T08:10:25;98146.75;;;15.93;100.00
60589;BME280;46421;48.610;9.334;2022-10-16T08:12:52;98151.28;;;15.79;100.00
60589;BME280;46421;48.610;9.334;2022-10-16T08:15:18;98151.09;;;15.80;100.00
60589;BME280;46421;48.610;9.334;2022-10-16T08:17:44;98156.66;;;15.65;100.00
60589;BME280;46421;48.610;9.334;2022-10-16T08:20:18;98150.25;;;15.53;100.00
60589;BME280;46421;48.610;9.334;2022-10-16T08:22:44;98146.56;;;15.54;100.00
60589;BME280;46421;48.610;9.334;2022-10-16T08:25:09;98147.78;;;15.72;100.00
60589;BME280;46421;48.610;9.334;2022-10-16T08:27:34;98155.66;;;15.93;100.00
60589;BME280;46421;48.610;9.334;2022-10-16T08:30:00;98148.19;;;16.09;100.00
60589;BME280;46421;48.610;9.334;2022-10-16T08:32:25;98162.56;;;16.35;100.00
60589;BME280;46421;48.610;9.334;2022-10-16T08:34:51;98162.13;;;16.38;100.00
60589;BME280;46421;48.610;9.334;2022-10-16T08:37:16;98161.00;;;16.66;100.00
60589;BME280;46421;48.610;9.334;2022-10-16T08:39:41;98168.72;;;17.01;100.00
60589;BME280;46421;48.610;9.334;2022-10-16T08:45:02;98159.88;;;18.45;92.61
60589;BME280;46421;48.610;9.334;2022-10-16T08:50:12;98171.53;;;20.92;77.02
60589;BME280;46421;48.610;9.334;2022-10-16T08:52:40;98173.22;;;20.16;80.87
60589;BME280;46421;48.610;9.334;2022-10-16T08:55:19;98174.56;;;19.83;85.23
60589;BME280;46421;48.610;9.334;2022-10-16T08:57:48;98180.00;;;19.41;87.98
60589;BME280;46421;48.610;9.334;2022-10-16T09:00:15;98176.69;;;18.78;88.43
60589;BME280;46421;48.610;9.334;2022-10-16T09:02:53;98177.31;;;18.61;90.48
60589;BME280;46421;48.610;9.334;2022-10-16T09:05:45;98179.16;;;18.61;91.96
60589;BME280;46421;48.610;9.334;2022-10-16T09:16:47;98196.81;;;19.13;89.94
60589;BME280;46421;48.610;9.334;2022-10-16T09:19:24;98195.16;;;19.11;89.98
60589;BME280;46421;48.610;9.334;2022-10-16T09:21:54;98198.97;;;19.34;88.65
60589;BME280;46421;48.610;9.334;2022-10-16T09:24:24;98208.44;;;19.79;88.39
60589;BME280;46421;48.610;9.334;2022-10-16T09:26:50;98198.97;;;20.60;77.23
60589;BME280;46421;48.610;9.334;2022-10-16T09:29:18;98202.25;;;20.62;77.74
60589;BME280;46421;48.610;9.334;2022-10-16T09:31:47;98214.53;;;20.93;81.59
60589;BME280;46421;48.610;9.334;2022-10-16T09:34:34;98206.31;;;24.35;66.17
60589;BME280;46421;48.610;9.334;2022-10-16T09:37:08;98213.88;;;28.27;52.52
60589;BME280;46421;48.610;9.334;2022-10-16T09:39:47;98220.69;;;27.60;52.98
60589;BME280;46421;48.610;9.334;2022-10-16T09:42:21;98214.31;;;30.03;43.30
60589;BME280;46421;48.610;9.334;2022-10-16T09:44:51;98211.09;;;31.63;38.58
60589;BME280;46421;48.610;9.334;2022-10-16T09:47:21;98200.94;;;30.62;39.08
60589;BME280;46421;48.610;9.334;2022-10-16T09:52:26;98200.19;;;24.60;54.77
60589;BME280;46421;48.610;9.334;2022-10-16T09:54:54;98201.31;;;23.51;60.88
60589;BME280;46421;48.610;9.334;2022-10-16T09:57:20;98192.19;;;22.85;64.25
60589;BME280;46421;48.610;9.334;2022-10-16T09:59:57;98193.13;;;22.35;67.27
60589;BME280;46421;48.610;9.334;2022-10-16T10:02:35;98199.50;;;21.89;69.08
60589;BME280;46421;48.610;9.334;2022-10-16T10:05:04;98201.38;;;21.72;69.66
60589;BME280;46421;48.610;9.334;2022-10-16T10:07:32;98196.34;;;21.46;74.59
60589;BME280;46421;48.610;9.334;2022-10-16T10:10:01;98195.59;;;21.34;76.22
60589;BME280;46421;48.610;9.334;2022-10-16T10:12:32;98200.94;;;21.46;77.04
60589;BME280;46421;48.610;9.334;2022-10-16T10:15:26;98202.31;;;22.95;69.23
60589;BME280;46421;48.610;9.334;2022-10-16T10:17:57;98202.44;;;23.28;67.38
60589;BME280;46421;48.610;9.334;2022-10-16T10:22:51;98205.53;;;23.69;65.54
60589;BME280;46421;48.610;9.334;2022-10-16T10:30:44;98201.19;;;30.47;44.00
60589;BME280;46421;48.610;9.334;2022-10-16T10:36:26;98189.16;;;28.62;45.28
60589;BME280;46421;48.610;9.334;2022-10-16T10:42:01;98190.25;;;26.88;50.27
60589;BME280;46421;48.610;9.334;2022-10-16T10:47:41;98193.56;;;26.79;53.75
60589;BME280;46421;48.610;9.334;2022-10-16T10:50:26;98189.41;;;27.42;49.42
60589;BME280;46421;48.610;9.334;2022-10-16T10:59:02;98193.88;;;31.48;38.98
60589;BME280;46421;48.610;9.334;2022-10-16T11:01:44;98190.09;;;32.04;38.26
60589;BME280;46421;48.610;9.334;2022-10-16T11:05:15;98202.66;;;33.61;35.15
60589;BME280;46421;48.610;9.334;2022-10-16T11:07:26;98202.97;;;34.03;32.69
60589;BME280;46421;48.610;9.334;2022-10-16T11:10:01;98199.47;;;34.24;31.27
60589;BME280;46421;48.610;9.334;2022-10-16T11:12:33;98195.91;;;34.71;34.62
60589;BME280;46421;48.610;9.334;2022-10-16T11:20:00;98193.97;;;29.90;38.32
60589;BME280;46421;48.610;9.334;2022-10-16T11:22:38;98180.75;;;27.70;41.43
60589;BME280;46421;48.610;9.334;2022-10-16T11:27:45;98179.59;;;24.69;53.16
60589;BME280;46421;48.610;9.334;2022-10-16T11:30:21;98175.16;;;24.53;55.40
60589;BME280;46421;48.610;9.334;2022-10-16T11:35:43;98177.38;;;24.61;57.02
60589;BME280;46421;48.610;9.334;2022-10-16T11:43:43;98176.03;;;25.63;57.57
60589;BME280;46421;48.610;9.334;2022-10-16T11:46:21;98165.38;;;26.03;55.46
60589;BME280;46421;48.610;9.334;2022-10-16T11:49:27;98162.53;;;27.60;54.49
60589;BME280;46421;48.610;9.334;2022-10-16T11:52:29;98162.00;;;27.18;49.52
60589;BME280;46421;48.610;9.334;2022-10-16T11:55:00;98169.97;;;28.43;44.89
60589;BME280;46421;48.610;9.334;2022-10-16T11:57:31;98180.94;;;29.81;41.69
60589;BME280;46421;48.610;9.334;2022-10-16T12:00:01;98162.94;;;30.55;37.97
60589;BME280;46421;48.610;9.334;2022-10-16T12:08:20;98156.47;;;32.38;35.43
60589;BME280;46421;48.610;9.334;2022-10-16T12:10:48;98165.06;;;32.54;34.77
60589;BME280;46421;48.610;9.334;2022-10-16T12:13:37;98160.66;;;33.29;33.44
60589;BME280;46421;48.610;9.334;2022-10-16T12:18:31;98162.84;;;32.74;32.46
60589;BME280;46421;48.610;9.334;2022-10-16T12:20:58;98161.31;;;31.19;34.36
60589;BME280;46421;48.610;9.334;2022-10-16T12:23:29;98158.34;;;32.69;31.15
60589;BME280;46421;48.610;9.334;2022-10-16T12:26:01;98159.53;;;32.94;31.98
60589;BME280;46421;48.610;9.334;2022-10-16T12:28:37;98152.00;;;31.06;35.58
60589;BME280;46421;48.610;9.334;2022-10-16T12:31:12;98152.69;;;31.12;32.38
60589;BME280;46421;48.610;9.334;2022-10-16T12:33:40;98145.63;;;31.79;31.32
60589;BME280;46421;48.610;9.334;2022-10-16T12:36:16;98148.28;;;30.32;34.17
60589;BME280;46421;48.610;9.334;2022-10-16T12:38:52;98164.34;;;29.59;34.24
60589;BME280;46421;48.610;9.334;2022-10-16T12:41:32;98160.34;;;28.94;37.02
60589;BME280;46421;48.610;9.334;2022-10-16T12:43:59;98160.31;;;29.37;35.25
60589;BME280;46421;48.610;9.334;2022-10-16T12:51:42;98161.47;;;30.86;35.62
60589;BME280;46421;48.610;9.334;2022-10-16T12:54:21;98160.19;;;30.69;31.93
60589;BME280;46421;48.610;9.334;2022-10-16T12:59:42;98157.50;;;30.08;33.91
60589;BME280;46421;48.610;9.334;2022-10-16T13:08:16;98149.19;;;29.80;32.64
60589;BME280;46421;48.610;9.334;2022-10-16T13:13:54;98162.75;;;28.52;36.07
60589;BME280;46421;48.610;9.334;2022-10-16T13:16:48;98163.53;;;28.33;36.07
60589;BME280;46421;48.610;9.334;2022-10-16T13:22:08;98162.03;;;27.13;37.91
60589;BME280;46421;48.610;9.334;2022-10-16T13:25:53;98163.72;;;26.38;39.17
60589;BME280;46421;48.610;9.334;2022-10-16T13:28:01;98156.72;;;25.65;40.58
60589;BME280;46421;48.610;9.334;2022-10-16T13:30:29;98165.63;;;25.29;41.74
60589;BME280;46421;48.610;9.334;2022-10-16T13:33:11;98157.25;;;25.41;43.71
60589;BME280;46421;48.610;9.334;2022-10-16T13:35:50;98160.50;;;25.43;44.51
60589;BME280;46421;48.610;9.334;2022-10-16T13:38:18;98159.09;;;25.15;46.58
60589;BME280;46421;48.610;9.334;2022-10-16T13:41:01;98165.59;;;24.40;46.15
60589;BME280;46421;48.610;9.334;2022-10-16T13:43:36;98154.91;;;24.23;49.39
60589;BME280;46421;48.610;9.334;2022-10-16T13:46:15;98159.78;;;23.83;47.70
60589;BME280;46421;48.610;9.334;2022-10-16T13:48:41;98164.59;;;23.76;47.06
60589;BME280;46421;48.610;9.334;2022-10-16T13:51:13;98165.59;;;23.97;48.58
60589;BME280;46421;48.610;9.334;2022-10-16T13:53:39;98154.22;;;23.95;49.67
60589;BME280;46421;48.610;9.334;2022-10-16T13:56:07;98153.94;;;23.96;48.50
60589;BME280;46421;48.610;9.334;2022-10-16T13:58:35;98159.13;;;24.03;49.67
60589;BME280;46421;48.610;9.334;2022-10-16T14:01:03;98148.31;;;24.13;49.21
60589;BME280;46421;48.610;9.334;2022-10-16T14:03:31;98154.72;;;24.40;48.96
60589;BME280;46421;48.610;9.334;2022-10-16T14:06:00;98160.53;;;24.64;47.89
60589;BME280;46421;48.610;9.334;2022-10-16T14:08:28;98164.41;;;24.73;46.06
60589;BME280;46421;48.610;9.334;2022-10-16T14:10:56;98165.28;;;24.94;46.16
60589;BME280;46421;48.610;9.334;2022-10-16T14:15:53;98172.41;;;25.06;48.19
60589;BME280;46421;48.610;9.334;2022-10-16T14:18:23;98162.84;;;24.98;47.36
60589;BME280;46421;48.610;9.334;2022-10-16T14:20:50;98158.56;;;25.18;44.22
60589;BME280;46421;48.610;9.334;2022-10-16T14:23:28;98164.00;;;25.28;44.42
60589;BME280;46421;48.610;9.334;2022-10-16T14:26:11;98160.34;;;24.76;44.96
60589;BME280;46421;48.610;9.334;2022-10-16T14:28:41;98156.81;;;24.75;45.82
60589;BME280;46421;48.610;9.334;2022-10-16T14:31:28;98165.94;;;24.54;49.58
60589;BME280;46421;48.610;9.334;2022-10-16T14:33:54;98168.56;;;24.33;48.44
60589;BME280;46421;48.610;9.334;2022-10-16T14:36:20;98157.56;;;24.12;48.00
60589;BME280;46421;48.610;9.334;2022-10-16T14:39:00;98161.31;;;24.01;48.14
60589;BME280;46421;48.610;9.334;2022-10-16T14:41:27;98162.69;;;23.71;48.36